sensor_id;sensor_type;location;lat;lon;timestamp;pressure;altitude;pressure_sealevel;temperature
22269;BMP280;11303;50.772;19.670;2023-06-19T00:00:24;98905.91;;;11.12
22269;BMP280;11303;50.772;19.670;2023-06-19T00:02:27;98905.41;;;11.06
22269;BMP280;11303;50.772;19.670;2023-06-19T00:04:28;98902.72;;;11.03
22269;BMP280;11303;50.772;19.670;2023-06-19T00:06:30;98902.31;;;11.01
22269;BMP280;11303;50.772;19.670;2023-06-19T00:08:32;98903.06;;;11.01
22269;BMP280;11303;50.772;19.670;2023-06-19T00:10:33;98907.94;;;11.03
22269;BMP280;11303;50.772;19.670;2023-06-19T00:12:35;98914.91;;;10.99
22269;BMP280;11303;50.772;19.670;2023-06-19T00:14:37;98907.34;;;10.94
22269;BMP280;11303;50.772;19.670;2023-06-19T00:16:39;98912.13;;;10.92
22269;BMP280;11303;50.772;19.670;2023-06-19T00:18:42;98915.41;;;10.88
22269;BMP280;11303;50.772;19.670;2023-06-19T00:20:43;98915.41;;;10.88
22269;BMP280;11303;50.772;19.670;2023-06-19T00:22:47;98918.41;;;10.91
22269;BMP280;11303;50.772;19.670;2023-06-19T00:24:52;98916.16;;;10.89
22269;BMP280;11303;50.772;19.670;2023-06-19T00:26:54;98916.41;;;10.84
22269;BMP280;11303;50.772;19.670;2023-06-19T00:28:56;98913.53;;;10.73
22269;BMP280;11303;50.772;19.670;2023-06-19T00:30:58;98911.84;;;10.65
22269;BMP280;11303;50.772;19.670;2023-06-19T00:32:59;98926.19;;;10.59
22269;BMP280;11303;50.772;19.670;2023-06-19T00:35:04;98921.13;;;10.50
22269;BMP280;11303;50.772;19.670;2023-06-19T00:37:06;98923.66;;;10.46
22269;BMP280;11303;50.772;19.670;2023-06-19T00:39:07;98912.41;;;10.42
22269;BMP280;11303;50.772;19.670;2023-06-19T00:41:09;98911.22;;;10.40
22269;BMP280;11303;50.772;19.670;2023-06-19T00:43:11;98919.38;;;10.38
22269;BMP280;11303;50.772;19.670;2023-06-19T00:45:13;98913.50;;;10.41
22269;BMP280;11303;50.772;19.670;2023-06-19T00:47:14;98923.25;;;10.44
22269;BMP280;11303;50.772;19.670;2023-06-19T00:49:16;98918.03;;;10.44
22269;BMP280;11303;50.772;19.670;2023-06-19T00:51:18;98919.88;;;10.44
22269;BMP280;11303;50.772;19.670;2023-06-19T00:53:20;98919.88;;;10.44
22269;BMP280;11303;50.772;19.670;2023-06-19T00:55:21;98920.19;;;10.42
22269;BMP280;11303;50.772;19.670;2023-06-19T00:57:23;98920.97;;;10.43
22269;BMP280;11303;50.772;19.670;2023-06-19T00:59:25;98912.41;;;10.42
22269;BMP280;11303;50.772;19.670;2023-06-19T01:01:27;98918.69;;;10.41
22269;BMP280;11303;50.772;19.670;2023-06-19T01:03:29;98916.78;;;10.38
22269;BMP280;11303;50.772;19.670;2023-06-19T01:05:31;98919.38;;;10.38
22269;BMP280;11303;50.772;19.670;2023-06-19T01:07:58;98916.31;;;10.36
22269;BMP280;11303;50.772;19.670;2023-06-19T01:10:03;98907.38;;;10.34
22269;BMP280;11303;50.772;19.670;2023-06-19T01:12:11;98909.19;;;10.33
22269;BMP280;11303;50.772;19.670;2023-06-19T01:14:23;98915.47;;;10.32
22269;BMP280;11303;50.772;19.670;2023-06-19T01:16:28;98906.53;;;10.29
22269;BMP280;11303;50.772;19.670;2023-06-19T01:18:31;98912.03;;;10.28
22269;BMP280;11303;50.772;19.670;2023-06-19T01:20:33;98908.69;;;10.27
22269;BMP280;11303;50.772;19.670;2023-06-19T01:22:35;98912.69;;;10.25
22269;BMP280;11303;50.772;19.670;2023-06-19T01:24:37;98911.84;;;10.21
22269;BMP280;11303;50.772;19.670;2023-06-19T01:26:38;98912.16;;;10.19
22269;BMP280;11303;50.772;19.670;2023-06-19T01:28:42;98915.09;;;10.18
22269;BMP280;11303;50.772;19.670;2023-06-19T01:30:44;98915.00;;;10.14
22269;BMP280;11303;50.772;19.670;2023-06-19T01:33:12;98914.28;;;10.14
22269;BMP280;11303;50.772;19.670;2023-06-19T01:35:19;98917.69;;;10.18
22269;BMP280;11303;50.772;19.670;2023-06-19T01:37:21;98918.00;;;10.16
22269;BMP280;11303;50.772;19.670;2023-06-19T01:39:24;98920.19;;;10.14
22269;BMP280;11303;50.772;19.670;2023-06-19T01:41:26;98917.19;;;10.12
22269;BMP280;11303;50.772;19.670;2023-06-19T01:43:30;98926.72;;;10.08
22269;BMP280;11303;50.772;19.670;2023-06-19T01:45:33;98923.47;;;9.99
22269;BMP280;11303;50.772;19.670;2023-06-19T01:47:35;98921.78;;;9.90
22269;BMP280;11303;50.772;19.670;2023-06-19T01:49:37;98911.41;;;9.78
22269;BMP280;11303;50.772;19.670;2023-06-19T01:51:39;98922.00;;;9.73
22269;BMP280;11303;50.772;19.670;2023-06-19T01:53:40;98910.34;;;9.67
22269;BMP280;11303;50.772;19.670;2023-06-19T01:55:42;98916.19;;;9.64
22269;BMP280;11303;50.772;19.670;2023-06-19T01:57:44;98906.03;;;9.59
22269;BMP280;11303;50.772;19.670;2023-06-19T01:59:47;98904.84;;;9.56
22269;BMP280;11303;50.772;19.670;2023-06-19T02:01:48;98910.81;;;9.57
22269;BMP280;11303;50.772;19.670;2023-06-19T02:03:50;98903.75;;;9.57
22269;BMP280;11303;50.772;19.670;2023-06-19T02:05:52;98920.53;;;9.60
22269;BMP280;11303;50.772;19.670;2023-06-19T02:07:53;98908.28;;;9.60
22269;BMP280;11303;50.772;19.670;2023-06-19T02:09:56;98916.41;;;9.59
22269;BMP280;11303;50.772;19.670;2023-06-19T02:11:58;98915.22;;;9.56
22269;BMP280;11303;50.772;19.670;2023-06-19T02:13:59;98915.53;;;9.55
22269;BMP280;11303;50.772;19.670;2023-06-19T02:16:01;98913.06;;;9.58
22269;BMP280;11303;50.772;19.670;2023-06-19T02:18:03;98913.06;;;9.58
22269;BMP280;11303;50.772;19.670;2023-06-19T02:20:05;98914.88;;;9.58
22269;BMP280;11303;50.772;19.670;2023-06-19T02:22:10;98913.81;;;9.59
22269;BMP280;11303;50.772;19.670;2023-06-19T02:24:11;98904.50;;;9.58
22269;BMP280;11303;50.772;19.670;2023-06-19T02:26:13;98905.28;;;9.58
22269;BMP280;11303;50.772;19.670;2023-06-19T02:28:14;98905.28;;;9.58
22269;BMP280;11303;50.772;19.670;2023-06-19T02:30:17;98908.94;;;9.57
22269;BMP280;11303;50.772;19.670;2023-06-19T02:32:18;98898.47;;;9.54
22269;BMP280;11303;50.772;19.670;2023-06-19T02:34:20;98914.78;;;9.54
22269;BMP280;11303;50.772;19.670;2023-06-19T02:36:22;98916.31;;;9.55
22269;BMP280;11303;50.772;19.670;2023-06-19T02:38:23;98912.94;;;9.55
22269;BMP280;11303;50.772;19.670;2023-06-19T02:40:25;98913.06;;;9.58
22269;BMP280;11303;50.772;19.670;2023-06-19T02:42:27;98913.06;;;9.58
22269;BMP280;11303;50.772;19.670;2023-06-19T02:44:28;98913.41;;;9.57
22269;BMP280;11303;50.772;19.670;2023-06-19T02:46:30;98904.63;;;9.61
22269;BMP280;11303;50.772;19.670;2023-06-19T02:48:31;98916.63;;;9.66
22269;BMP280;11303;50.772;19.670;2023-06-19T02:50:33;98913.03;;;9.70
22269;BMP280;11303;50.772;19.670;2023-06-19T02:52:35;98909.03;;;9.73
22269;BMP280;11303;50.772;19.670;2023-06-19T02:54:37;98917.34;;;9.79
22269;BMP280;11303;50.772;19.670;2023-06-19T02:56:38;98920.50;;;9.84
22269;BMP280;11303;50.772;19.670;2023-06-19T02:58:40;98921.56;;;9.83
22269;BMP280;11303;50.772;19.670;2023-06-19T03:00:43;98929.38;;;9.83
22269;BMP280;11303;50.772;19.670;2023-06-19T03:02:45;98932.50;;;9.89
22269;BMP280;11303;50.772;19.670;2023-06-19T03:04:46;98924.47;;;9.94
22269;BMP280;11303;50.772;19.670;2023-06-19T03:06:48;98930.94;;;10.00
22269;BMP280;11303;50.772;19.670;2023-06-19T03:08:49;98922.78;;;10.14
22269;BMP280;11303;50.772;19.670;2023-06-19T03:10:51;98932.41;;;10.26
22269;BMP280;11303;50.772;19.670;2023-06-19T03:12:53;98928.91;;;10.34
22269;BMP280;11303;50.772;19.670;2023-06-19T03:14:54;98924.00;;;10.45
22269;BMP280;11303;50.772;19.670;2023-06-19T03:16:56;98931.06;;;10.60
22269;BMP280;11303;50.772;19.670;2023-06-19T03:18:57;98925.38;;;10.71
22269;BMP280;11303;50.772;19.670;2023-06-19T03:20:59;98925.53;;;10.78
22269;BMP280;11303;50.772;19.670;2023-06-19T03:23:00;98927.06;;;10.95
22269;BMP280;11303;50.772;19.670;2023-06-19T03:25:02;98930.84;;;11.13
22269;BMP280;11303;50.772;19.670;2023-06-19T03:27:04;98923.78;;;11.30
22269;BMP280;11303;50.772;19.670;2023-06-19T03:29:06;98930.28;;;11.55
22269;BMP280;11303;50.772;19.670;2023-06-19T03:31:07;98938.81;;;11.91
22269;BMP280;11303;50.772;19.670;2023-06-19T03:33:09;98926.06;;;12.25
22269;BMP280;11303;50.772;19.670;2023-06-19T03:35:11;98925.59;;;12.62
22269;BMP280;11303;50.772;19.670;2023-06-19T03:37:12;98916.34;;;12.91
22269;BMP280;11303;50.772;19.670;2023-06-19T03:39:14;98925.81;;;13.26
22269;BMP280;11303;50.772;19.670;2023-06-19T03:41:16;98917.94;;;13.49
22269;BMP280;11303;50.772;19.670;2023-06-19T03:43:17;98928.19;;;13.65
22269;BMP280;11303;50.772;19.670;2023-06-19T03:45:19;98921.75;;;13.89
22269;BMP280;11303;50.772;19.670;2023-06-19T03:47:21;98930.22;;;14.16
22269;BMP280;11303;50.772;19.670;2023-06-19T03:49:22;98927.53;;;14.46
22269;BMP280;11303;50.772;19.670;2023-06-19T03:51:24;98920.19;;;14.63
22269;BMP280;11303;50.772;19.670;2023-06-19T03:53:26;98924.44;;;14.82
22269;BMP280;11303;50.772;19.670;2023-06-19T03:55:27;98928.59;;;14.94
22269;BMP280;11303;50.772;19.670;2023-06-19T03:57:29;98912.66;;;15.17
22269;BMP280;11303;50.772;19.670;2023-06-19T03:59:30;98919.44;;;15.21
22269;BMP280;11303;50.772;19.670;2023-06-19T04:01:32;98924.66;;;15.18
22269;BMP280;11303;50.772;19.670;2023-06-19T04:03:34;98925.44;;;15.25
22269;BMP280;11303;50.772;19.670;2023-06-19T04:05:35;98926.59;;;15.28
22269;BMP280;11303;50.772;19.670;2023-06-19T04:07:37;98931.47;;;15.33
22269;BMP280;11303;50.772;19.670;2023-06-19T04:09:39;98934.47;;;15.28
22269;BMP280;11303;50.772;19.670;2023-06-19T04:11:41;98928.44;;;15.24
22269;BMP280;11303;50.772;19.670;2023-06-19T04:13:43;98935.50;;;15.20
22269;BMP280;11303;50.772;19.670;2023-06-19T04:15:44;98934.81;;;15.26
22269;BMP280;11303;50.772;19.670;2023-06-19T04:17:49;98939.69;;;15.35
22269;BMP280;11303;50.772;19.670;2023-06-19T04:19:51;98932.28;;;15.48
22269;BMP280;11303;50.772;19.670;2023-06-19T04:21:52;98934.22;;;15.69
22269;BMP280;11303;50.772;19.670;2023-06-19T04:23:56;98935.06;;;15.98
22269;BMP280;11303;50.772;19.670;2023-06-19T04:25:57;98947.47;;;16.51
22269;BMP280;11303;50.772;19.670;2023-06-19T04:27:59;98945.13;;;17.14
22269;BMP280;11303;50.772;19.670;2023-06-19T04:30:02;98942.97;;;17.83
22269;BMP280;11303;50.772;19.670;2023-06-19T04:32:05;98937.78;;;18.25
22269;BMP280;11303;50.772;19.670;2023-06-19T04:34:15;98936.06;;;18.49
22269;BMP280;11303;50.772;19.670;2023-06-19T04:36:16;98938.25;;;18.95
22269;BMP280;11303;50.772;19.670;2023-06-19T04:38:18;98935.22;;;19.28
22269;BMP280;11303;50.772;19.670;2023-06-19T04:40:20;98942.91;;;19.15
22269;BMP280;11303;50.772;19.670;2023-06-19T04:42:22;98945.94;;;18.79
22269;BMP280;11303;50.772;19.670;2023-06-19T04:44:23;98945.72;;;18.66
22269;BMP280;11303;50.772;19.670;2023-06-19T04:46:25;98944.44;;;18.78
22269;BMP280;11303;50.772;19.670;2023-06-19T04:48:26;98949.78;;;19.05
22269;BMP280;11303;50.772;19.670;2023-06-19T04:50:28;98946.78;;;19.37
22269;BMP280;11303;50.772;19.670;2023-06-19T04:52:30;98956.50;;;19.71
22269;BMP280;11303;50.772;19.670;2023-06-19T04:54:34;98946.16;;;20.31
22269;BMP280;11303;50.772;19.670;2023-06-19T04:56:36;98960.69;;;20.83
22269;BMP280;11303;50.772;19.670;2023-06-19T04:58:37;98944.34;;;21.08
22269;BMP280;11303;50.772;19.670;2023-06-19T05:00:47;98947.94;;;21.34
22269;BMP280;11303;50.772;19.670;2023-06-19T05:02:52;98951.28;;;21.38
22269;BMP280;11303;50.772;19.670;2023-06-19T05:04:54;98954.16;;;21.44
22269;BMP280;11303;50.772;19.670;2023-06-19T05:06:55;98948.84;;;21.64
22269;BMP280;11303;50.772;19.670;2023-06-19T05:08:57;98954.03;;;22.00
22269;BMP280;11303;50.772;19.670;2023-06-19T05:10:58;98950.41;;;22.23
22269;BMP280;11303;50.772;19.670;2023-06-19T05:13:00;98947.31;;;22.41
22269;BMP280;11303;50.772;19.670;2023-06-19T05:15:03;98953.09;;;22.65
22269;BMP280;11303;50.772;19.670;2023-06-19T05:17:05;98953.81;;;23.07
22269;BMP280;11303;50.772;19.670;2023-06-19T05:19:07;98948.91;;;23.57
22269;BMP280;11303;50.772;19.670;2023-06-19T05:21:09;98952.66;;;23.82
22269;BMP280;11303;50.772;19.670;2023-06-19T05:23:10;98955.19;;;23.98
22269;BMP280;11303;50.772;19.670;2023-06-19T05:25:12;98952.00;;;23.90
22269;BMP280;11303;50.772;19.670;2023-06-19T05:27:14;98951.75;;;23.97
22269;BMP280;11303;50.772;19.670;2023-06-19T05:29:15;98957.09;;;24.19
22269;BMP280;11303;50.772;19.670;2023-06-19T05:31:17;98959.22;;;24.25
22269;BMP280;11303;50.772;19.670;2023-06-19T05:33:20;98951.91;;;24.16
22269;BMP280;11303;50.772;19.670;2023-06-19T05:35:22;98955.22;;;24.07
22269;BMP280;11303;50.772;19.670;2023-06-19T05:37:23;98962.66;;;24.56
22269;BMP280;11303;50.772;19.670;2023-06-19T05:39:25;98950.88;;;25.07
22269;BMP280;11303;50.772;19.670;2023-06-19T05:41:26;98951.09;;;25.22
22269;BMP280;11303;50.772;19.670;2023-06-19T05:43:28;98960.47;;;25.45
22269;BMP280;11303;50.772;19.670;2023-06-19T05:45:30;98955.59;;;26.08
22269;BMP280;11303;50.772;19.670;2023-06-19T05:47:32;98959.81;;;26.51
22269;BMP280;11303;50.772;19.670;2023-06-19T05:49:33;98960.97;;;26.59
22269;BMP280;11303;50.772;19.670;2023-06-19T05:51:35;98962.56;;;26.75
22269;BMP280;11303;50.772;19.670;2023-06-19T05:53:36;98964.50;;;26.65
22269;BMP280;11303;50.772;19.670;2023-06-19T05:55:40;98963.34;;;26.57
22269;BMP280;11303;50.772;19.670;2023-06-19T05:57:42;98962.94;;;26.50
22269;BMP280;11303;50.772;19.670;2023-06-19T05:59:43;98960.41;;;26.88
22269;BMP280;11303;50.772;19.670;2023-06-19T06:01:45;98955.63;;;27.26
22269;BMP280;11303;50.772;19.670;2023-06-19T06:03:47;98958.56;;;27.52
22269;BMP280;11303;50.772;19.670;2023-06-19T06:05:48;98962.75;;;27.44
22269;BMP280;11303;50.772;19.670;2023-06-19T06:07:51;98958.03;;;27.39
22269;BMP280;11303;50.772;19.670;2023-06-19T06:09:52;98956.50;;;27.47
22269;BMP280;11303;50.772;19.670;2023-06-19T06:11:54;98955.19;;;27.42
22269;BMP280;11303;50.772;19.670;2023-06-19T06:13:56;98959.88;;;27.32
22269;BMP280;11303;50.772;19.670;2023-06-19T06:15:57;98956.44;;;27.56
22269;BMP280;11303;50.772;19.670;2023-06-19T06:17:59;98956.50;;;27.86
22269;BMP280;11303;50.772;19.670;2023-06-19T06:20:02;98957.50;;;28.47
22269;BMP280;11303;50.772;19.670;2023-06-19T06:22:07;98962.88;;;28.68
22269;BMP280;11303;50.772;19.670;2023-06-19T06:24:09;98959.94;;;28.66
22269;BMP280;11303;50.772;19.670;2023-06-19T06:26:11;98960.91;;;28.48
22269;BMP280;11303;50.772;19.670;2023-06-19T06:28:12;98961.47;;;28.22
22269;BMP280;11303;50.772;19.670;2023-06-19T06:30:14;98958.53;;;28.35
22269;BMP280;11303;50.772;19.670;2023-06-19T06:32:18;98958.97;;;28.34
22269;BMP280;11303;50.772;19.670;2023-06-19T06:34:20;98959.31;;;28.56
22269;BMP280;11303;50.772;19.670;2023-06-19T06:36:21;98969.66;;;28.34
22269;BMP280;11303;50.772;19.670;2023-06-19T06:38:37;98963.50;;;28.42
22269;BMP280;11303;50.772;19.670;2023-06-19T06:40:38;98959.66;;;28.64
22269;BMP280;11303;50.772;19.670;2023-06-19T06:42:40;98974.75;;;29.23
22269;BMP280;11303;50.772;19.670;2023-06-19T06:44:42;98963.59;;;29.71
22269;BMP280;11303;50.772;19.670;2023-06-19T06:46:43;98964.09;;;29.75
22269;BMP280;11303;50.772;19.670;2023-06-19T06:48:45;98966.41;;;29.35
22269;BMP280;11303;50.772;19.670;2023-06-19T06:50:46;98968.69;;;29.69
22269;BMP280;11303;50.772;19.670;2023-06-19T06:52:48;98975.03;;;29.45
22269;BMP280;11303;50.772;19.670;2023-06-19T06:54:50;98966.25;;;29.45
22269;BMP280;11303;50.772;19.670;2023-06-19T06:56:52;98974.47;;;29.61
22269;BMP280;11303;50.772;19.670;2023-06-19T06:58:57;98969.63;;;29.65
22269;BMP280;11303;50.772;19.670;2023-06-19T07:00:59;98972.22;;;29.34
22269;BMP280;11303;50.772;19.670;2023-06-19T07:03:01;98975.69;;;28.99
22269;BMP280;11303;50.772;19.670;2023-06-19T07:05:02;98969.22;;;28.70
22269;BMP280;11303;50.772;19.670;2023-06-19T07:07:04;98973.75;;;28.79
22269;BMP280;11303;50.772;19.670;2023-06-19T07:09:07;98983.84;;;29.10
22269;BMP280;11303;50.772;19.670;2023-06-19T07:11:09;98977.31;;;29.58
22269;BMP280;11303;50.772;19.670;2023-06-19T07:13:10;98975.91;;;29.62
22269;BMP280;11303;50.772;19.670;2023-06-19T07:15:12;98971.22;;;30.09
22269;BMP280;11303;50.772;19.670;2023-06-19T07:17:14;98973.38;;;30.43
22269;BMP280;11303;50.772;19.670;2023-06-19T07:19:15;98983.50;;;30.59
22269;BMP280;11303;50.772;19.670;2023-06-19T07:21:17;98978.72;;;30.80
22269;BMP280;11303;50.772;19.670;2023-06-19T07:23:19;98978.94;;;30.76
22269;BMP280;11303;50.772;19.670;2023-06-19T07:25:22;98977.69;;;30.72
22269;BMP280;11303;50.772;19.670;2023-06-19T07:27:26;98980.66;;;30.74
22269;BMP280;11303;50.772;19.670;2023-06-19T07:29:29;98974.41;;;30.94
22269;BMP280;11303;50.772;19.670;2023-06-19T07:31:30;98975.22;;;30.25
22269;BMP280;11303;50.772;19.670;2023-06-19T07:33:32;98987.56;;;29.85
22269;BMP280;11303;50.772;19.670;2023-06-19T07:35:33;98989.06;;;29.19
22269;BMP280;11303;50.772;19.670;2023-06-19T07:37:35;98989.13;;;29.25
22269;BMP280;11303;50.772;19.670;2023-06-19T07:39:37;98988.34;;;29.39
22269;BMP280;11303;50.772;19.670;2023-06-19T07:41:38;98991.09;;;29.25
22269;BMP280;11303;50.772;19.670;2023-06-19T07:43:40;98986.81;;;29.12
22269;BMP280;11303;50.772;19.670;2023-06-19T07:45:41;98987.69;;;29.24
22269;BMP280;11303;50.772;19.670;2023-06-19T07:47:43;98991.88;;;29.10
22269;BMP280;11303;50.772;19.670;2023-06-19T07:49:45;98993.09;;;28.74
22269;BMP280;11303;50.772;19.670;2023-06-19T07:51:46;98990.47;;;28.94
22269;BMP280;11303;50.772;19.670;2023-06-19T07:53:48;98983.22;;;28.00
22269;BMP280;11303;50.772;19.670;2023-06-19T07:55:50;98980.81;;;27.49
22269;BMP280;11303;50.772;19.670;2023-06-19T07:57:51;98990.28;;;27.50
22269;BMP280;11303;50.772;19.670;2023-06-19T07:59:54;98984.56;;;27.42
22269;BMP280;11303;50.772;19.670;2023-06-19T08:01:56;98985.91;;;27.62
22269;BMP280;11303;50.772;19.670;2023-06-19T08:03:57;98982.47;;;28.15
22269;BMP280;11303;50.772;19.670;2023-06-19T08:05:59;98991.06;;;28.84
22269;BMP280;11303;50.772;19.670;2023-06-19T08:08:01;98997.44;;;29.27
22269;BMP280;11303;50.772;19.670;2023-06-19T08:10:03;98993.06;;;29.50
22269;BMP280;11303;50.772;19.670;2023-06-19T08:12:14;98992.09;;;30.00
22269;BMP280;11303;50.772;19.670;2023-06-19T08:14:16;98979.38;;;29.69
22269;BMP280;11303;50.772;19.670;2023-06-19T08:16:18;98989.22;;;29.77
22269;BMP280;11303;50.772;19.670;2023-06-19T08:18:20;98986.94;;;29.96
22269;BMP280;11303;50.772;19.670;2023-06-19T08:20:21;98990.41;;;29.76
22269;BMP280;11303;50.772;19.670;2023-06-19T08:22:23;98979.19;;;29.72
22269;BMP280;11303;50.772;19.670;2023-06-19T08:24:26;98990.59;;;29.93
22269;BMP280;11303;50.772;19.670;2023-06-19T08:26:28;98980.91;;;30.33
22269;BMP280;11303;50.772;19.670;2023-06-19T08:28:31;98988.38;;;31.15
22269;BMP280;11303;50.772;19.670;2023-06-19T08:30:33;98990.44;;;31.93
22269;BMP280;11303;50.772;19.670;2023-06-19T08:32:34;98982.84;;;32.25
22269;BMP280;11303;50.772;19.670;2023-06-19T08:34:36;98980.66;;;32.18
22269;BMP280;11303;50.772;19.670;2023-06-19T08:36:39;98994.38;;;31.81
22269;BMP280;11303;50.772;19.670;2023-06-19T08:38:41;98992.56;;;31.21
22269;BMP280;11303;50.772;19.670;2023-06-19T08:40:42;98986.66;;;31.12
22269;BMP280;11303;50.772;19.670;2023-06-19T08:42:45;98994.88;;;29.85
22269;BMP280;11303;50.772;19.670;2023-06-19T08:44:46;98987.25;;;28.90
22269;BMP280;11303;50.772;19.670;2023-06-19T08:46:48;98982.09;;;28.87
22269;BMP280;11303;50.772;19.670;2023-06-19T08:48:50;98998.91;;;29.28
22269;BMP280;11303;50.772;19.670;2023-06-19T08:50:51;98987.31;;;29.83
22269;BMP280;11303;50.772;19.670;2023-06-19T08:52:54;98979.03;;;30.13
22269;BMP280;11303;50.772;19.670;2023-06-19T08:54:56;98975.97;;;29.94
22269;BMP280;11303;50.772;19.670;2023-06-19T08:57:01;98966.09;;;30.06
22269;BMP280;11303;50.772;19.670;2023-06-19T08:59:11;98966.66;;;30.21
22269;BMP280;11303;50.772;19.670;2023-06-19T09:01:22;98970.09;;;30.59
22269;BMP280;11303;50.772;19.670;2023-06-19T09:03:28;98967.72;;;30.78
22269;BMP280;11303;50.772;19.670;2023-06-19T09:05:30;98966.84;;;30.92
22269;BMP280;11303;50.772;19.670;2023-06-19T09:07:31;98969.84;;;31.22
22269;BMP280;11303;50.772;19.670;2023-06-19T09:09:33;98966.44;;;31.22
22269;BMP280;11303;50.772;19.670;2023-06-19T09:11:35;98963.41;;;30.06
22269;BMP280;11303;50.772;19.670;2023-06-19T09:13:36;98969.75;;;29.56
22269;BMP280;11303;50.772;19.670;2023-06-19T09:15:38;98978.53;;;29.31
22269;BMP280;11303;50.772;19.670;2023-06-19T09:17:40;98967.78;;;29.51
22269;BMP280;11303;50.772;19.670;2023-06-19T09:19:52;98963.13;;;29.98
22269;BMP280;11303;50.772;19.670;2023-06-19T09:21:59;98963.91;;;30.42
22269;BMP280;11303;50.772;19.670;2023-06-19T09:24:06;98963.75;;;30.19
22269;BMP280;11303;50.772;19.670;2023-06-19T09:26:07;98971.38;;;30.00
22269;BMP280;11303;50.772;19.670;2023-06-19T09:28:19;98974.06;;;29.07
22269;BMP280;11303;50.772;19.670;2023-06-19T09:30:21;98970.84;;;29.44
22269;BMP280;11303;50.772;19.670;2023-06-19T09:32:25;98956.69;;;30.22
22269;BMP280;11303;50.772;19.670;2023-06-19T09:34:27;98958.97;;;30.34
22269;BMP280;11303;50.772;19.670;2023-06-19T09:36:31;98957.03;;;30.41
22269;BMP280;11303;50.772;19.670;2023-06-19T09:38:36;98954.91;;;30.45
22269;BMP280;11303;50.772;19.670;2023-06-19T09:40:39;98962.56;;;30.69
22269;BMP280;11303;50.772;19.670;2023-06-19T09:42:43;98955.13;;;30.95
22269;BMP280;11303;50.772;19.670;2023-06-19T09:44:46;98959.50;;;30.39
22269;BMP280;11303;50.772;19.670;2023-06-19T09:46:51;98956.16;;;30.12
22269;BMP280;11303;50.772;19.670;2023-06-19T09:48:55;98961.63;;;30.34
22269;BMP280;11303;50.772;19.670;2023-06-19T09:51:05;98956.72;;;30.70
22269;BMP280;11303;50.772;19.670;2023-06-19T09:53:09;98962.84;;;30.71
22269;BMP280;11303;50.772;19.670;2023-06-19T09:55:12;98956.91;;;31.21
22269;BMP280;11303;50.772;19.670;2023-06-19T09:57:14;98955.44;;;31.20
22269;BMP280;11303;50.772;19.670;2023-06-19T09:59:18;98955.13;;;31.01
22269;BMP280;11303;50.772;19.670;2023-06-19T10:01:20;98950.03;;;29.80
22269;BMP280;11303;50.772;19.670;2023-06-19T10:03:30;98952.50;;;29.83
22269;BMP280;11303;50.772;19.670;2023-06-19T10:05:32;98947.75;;;29.47
22269;BMP280;11303;50.772;19.670;2023-06-19T10:07:35;98949.72;;;29.46
22269;BMP280;11303;50.772;19.670;2023-06-19T10:09:37;98937.22;;;29.89
22269;BMP280;11303;50.772;19.670;2023-06-19T10:11:46;98948.66;;;30.65
22269;BMP280;11303;50.772;19.670;2023-06-19T10:13:48;98942.19;;;30.88
22269;BMP280;11303;50.772;19.670;2023-06-19T10:15:50;98949.88;;;31.29
22269;BMP280;11303;50.772;19.670;2023-06-19T10:18:01;98941.34;;;31.75
22269;BMP280;11303;50.772;19.670;2023-06-19T10:20:05;98934.75;;;31.82
22269;BMP280;11303;50.772;19.670;2023-06-19T10:22:19;98937.19;;;32.14
22269;BMP280;11303;50.772;19.670;2023-06-19T10:24:23;98941.63;;;30.73
22269;BMP280;11303;50.772;19.670;2023-06-19T10:26:35;98940.53;;;28.71
22269;BMP280;11303;50.772;19.670;2023-06-19T10:28:37;98939.97;;;28.32
22269;BMP280;11303;50.772;19.670;2023-06-19T10:30:38;98942.56;;;27.96
22269;BMP280;11303;50.772;19.670;2023-06-19T10:32:40;98934.63;;;28.32
22269;BMP280;11303;50.772;19.670;2023-06-19T10:34:45;98933.13;;;29.01
22269;BMP280;11303;50.772;19.670;2023-06-19T10:36:48;98924.91;;;29.25
22269;BMP280;11303;50.772;19.670;2023-06-19T10:38:50;98926.34;;;29.00
22269;BMP280;11303;50.772;19.670;2023-06-19T10:40:52;98932.47;;;28.86
22269;BMP280;11303;50.772;19.670;2023-06-19T10:42:54;98930.66;;;28.27
22269;BMP280;11303;50.772;19.670;2023-06-19T10:45:06;98937.31;;;28.32
22269;BMP280;11303;50.772;19.670;2023-06-19T10:47:08;98932.88;;;28.79
22269;BMP280;11303;50.772;19.670;2023-06-19T10:49:10;98934.84;;;29.45
22269;BMP280;11303;50.772;19.670;2023-06-19T10:51:18;98926.53;;;29.63
22269;BMP280;11303;50.772;19.670;2023-06-19T10:53:26;98935.69;;;29.83
22269;BMP280;11303;50.772;19.670;2023-06-19T10:55:28;98938.53;;;30.05
22269;BMP280;11303;50.772;19.670;2023-06-19T10:57:30;98926.94;;;30.63
22269;BMP280;11303;50.772;19.670;2023-06-19T10:59:33;98931.69;;;30.90
22269;BMP280;11303;50.772;19.670;2023-06-19T11:01:43;98932.38;;;30.74
22269;BMP280;11303;50.772;19.670;2023-06-19T11:03:46;98926.03;;;30.71
22269;BMP280;11303;50.772;19.670;2023-06-19T11:05:48;98923.56;;;30.73
22269;BMP280;11303;50.772;19.670;2023-06-19T11:07:55;98926.50;;;30.75
22269;BMP280;11303;50.772;19.670;2023-06-19T11:09:56;98914.72;;;31.61
22269;BMP280;11303;50.772;19.670;2023-06-19T11:11:58;98914.84;;;32.36
22269;BMP280;11303;50.772;19.670;2023-06-19T11:14:01;98913.28;;;32.63
22269;BMP280;11303;50.772;19.670;2023-06-19T11:16:02;98913.59;;;32.42
22269;BMP280;11303;50.772;19.670;2023-06-19T11:18:04;98923.25;;;31.98
22269;BMP280;11303;50.772;19.670;2023-06-19T11:20:11;98918.84;;;31.22
22269;BMP280;11303;50.772;19.670;2023-06-19T11:22:13;98920.66;;;29.91
22269;BMP280;11303;50.772;19.670;2023-06-19T11:24:15;98912.38;;;29.89
22269;BMP280;11303;50.772;19.670;2023-06-19T11:26:17;98914.41;;;30.05
22269;BMP280;11303;50.772;19.670;2023-06-19T11:28:18;98916.94;;;30.69
22269;BMP280;11303;50.772;19.670;2023-06-19T11:30:31;98916.63;;;31.10
22269;BMP280;11303;50.772;19.670;2023-06-19T11:32:37;98916.75;;;30.72
22269;BMP280;11303;50.772;19.670;2023-06-19T11:34:42;98917.25;;;29.96
22269;BMP280;11303;50.772;19.670;2023-06-19T11:36:46;98915.41;;;30.08
22269;BMP280;11303;50.772;19.670;2023-06-19T11:38:48;98912.53;;;30.60